Time;durP1;ratioP1;P1;durP2;ratioP2;P2;SDS_P1;SDS_P2;PMS_P1;PMS_P2;Temp;Humidity;BMP_temperature;BMP_pressure;BME280_temperature;BME280_humidity;BME280_pressure;Samples;Min_cycle;Max_cycle;Signal;HPM_P1;HPM_P2
2023/02/21 02:15:29;;;;;;;;;;;;;;;1.24;79.44;93621.31;5018591;28;20047;-48
2023/02/21 02:18:14;;;;;;;;;;;;;;;1.01;79.96;93621.66;5019610;28;19970;-48
2023/02/21 02:20:49;;;;;;;;;;;;;;;1.06;80.33;93621.69;5028336;28;19943;-48
2023/02/21 02:23:20;;;;;;;;;;;;;;;1.05;81.28;93614.78;5029303;28;20654;-48
2023/02/21 02:26:04;;;;;;;;;;;;;;;1.25;81.90;93614.66;5028615;28;19913;-49
2023/02/21 02:28:49;;;;;;;;;;;;;;;1.09;80.98;93615.28;5009335;28;19914;-49
2023/02/21 02:31:20;;;;;;;;;;;;;;;1.19;80.34;93610.41;5008019;28;20329;-48
2023/02/21 02:33:48;;;;;;;;;;;;;;;1.16;80.65;93603.97;5009747;28;19924;-48
2023/02/21 02:36:14;;;;;;;;;;;;;;;1.06;81.31;93605.38;5009476;28;20373;-48
2023/02/21 02:38:47;;;;;;;;;;;;;;;1.06;81.41;93608.09;5009539;28;19917;-49
2023/02/21 02:41:18;;;;;;;;;;;;;;;1.13;81.64;93607.66;5009125;28;19924;-48
2023/02/21 02:43:48;;;;;;;;;;;;;;;1.04;81.21;93610.53;5009724;28;19925;-48
2023/02/21 02:46:18;;;;;;;;;;;;;;;1.19;80.97;93607.72;5007954;28;19918;-50
2023/02/21 02:48:45;;;;;;;;;;;;;;;1.07;80.95;93620.47;5007998;28;19917;-48
2023/02/21 02:51:11;;;;;;;;;;;;;;;1.25;80.02;93611.19;5009407;28;20348;-48
2023/02/21 02:53:37;;;;;;;;;;;;;;;1.25;80.22;93611.19;5008311;28;20012;-48
2023/02/21 02:56:09;;;;;;;;;;;;;;;1.28;80.54;93608.25;5009135;28;20368;-49
2023/02/21 02:58:37;;;;;;;;;;;;;;;1.27;80.13;93614.94;5008655;28;20448;-48
2023/02/21 03:01:21;;;;;;;;;;;;;;;1.12;80.49;93606.19;5008559;28;19943;-49
2023/02/21 03:03:49;;;;;;;;;;;;;;;0.80;81.85;93601.97;5009251;28;20357;-48
2023/02/21 03:06:18;;;;;;;;;;;;;;;0.96;82.77;93595.16;5007736;28;19977;-48
2023/02/21 03:08:52;;;;;;;;;;;;;;;1.06;82.58;93594.50;5007490;28;20376;-49
2023/02/21 03:11:19;;;;;;;;;;;;;;;0.95;82.18;93601.84;5008634;28;19956;-48
2023/02/21 03:13:48;;;;;;;;;;;;;;;1.00;80.99;93601.88;5007653;28;20502;-47
2023/02/21 03:16:28;;;;;;;;;;;;;;;1.12;80.24;93600.75;5006959;28;19921;-49
2023/02/21 03:19:13;;;;;;;;;;;;;;;1.10;80.52;93597.00;5007327;28;19959;-48
2023/02/21 03:21:40;;;;;;;;;;;;;;;0.93;82.88;93591.47;5007839;28;19918;-48
2023/02/21 03:24:05;;;;;;;;;;;;;;;1.06;82.28;93594.50;5007284;28;19978;-50
2023/02/21 03:26:31;;;;;;;;;;;;;;;1.01;82.54;93592.50;5013169;28;19917;-48
2023/02/21 03:28:57;;;;;;;;;;;;;;;0.89;80.50;93593.63;5028245;28;20304;-48
2023/02/21 03:31:23;;;;;;;;;;;;;;;0.87;82.29;93593.38;5021032;28;19914;-48
2023/02/21 03:33:49;;;;;;;;;;;;;;;0.86;83.00;93586.47;5007353;28;19917;-48
2023/02/21 03:36:14;;;;;;;;;;;;;;;1.18;82.35;93589.88;5026636;28;19924;-48
2023/02/21 03:38:40;;;;;;;;;;;;;;;1.54;81.21;93594.53;5010151;28;20003;-51
2023/02/21 03:41:05;;;;;;;;;;;;;;;1.76;80.01;93594.66;5027662;28;19963;-48
2023/02/21 03:43:31;;;;;;;;;;;;;;;1.82;78.97;93589.97;5027825;28;20024;-48
2023/02/21 03:45:56;;;;;;;;;;;;;;;1.93;78.79;93598.19;5027781;28;19963;-48
2023/02/21 03:48:21;;;;;;;;;;;;;;;2.00;77.88;93592.28;5027622;28;20555;-49
2023/02/21 03:50:46;;;;;;;;;;;;;;;1.99;78.49;93606.41;5027566;28;19917;-49
2023/02/21 03:53:11;;;;;;;;;;;;;;;1.91;78.96;93608.06;5028149;28;19995;-51
2023/02/21 03:55:37;;;;;;;;;;;;;;;2.02;78.58;93610.84;5027721;28;20668;-48
2023/02/21 03:58:02;;;;;;;;;;;;;;;2.19;77.34;93609.66;5027307;28;19921;-50
2023/02/21 04:00:27;;;;;;;;;;;;;;;2.14;77.02;93617.84;5027660;28;19916;-49
2023/02/21 04:02:53;;;;;;;;;;;;;;;2.23;76.64;93623.78;5027955;28;19921;-48
2023/02/21 04:05:18;;;;;;;;;;;;;;;2.19;77.02;93609.66;5027154;28;20416;-50
2023/02/21 04:07:43;;;;;;;;;;;;;;;2.16;76.89;93615.38;5027270;28;20008;-48
2023/02/21 04:10:08;;;;;;;;;;;;;;;2.09;77.02;93624.75;5019168;28;19925;-49
2023/02/21 04:12:34;;;;;;;;;;;;;;;1.90;76.13;93626.41;5025004;28;19952;-49
2023/02/21 04:14:59;;;;;;;;;;;;;;;1.83;76.67;93617.94;5020122;28;20382;-48
2023/02/21 04:17:24;;;;;;;;;;;;;;;1.67;77.35;93619.34;5010235;28;19918;-48
2023/02/21 04:19:50;;;;;;;;;;;;;;;1.63;76.89;93618.84;5013928;28;19917;-47
2023/02/21 04:22:15;;;;;;;;;;;;;;;1.33;77.65;93620.41;5031879;28;19939;-49
2023/02/21 04:24:41;;;;;;;;;;;;;;;1.06;78.67;93616.25;5031304;28;20409;-47
2023/02/21 04:27:06;;;;;;;;;;;;;;;1.12;79.55;93614.34;5021268;28;19921;-48
2023/02/21 04:29:32;;;;;;;;;;;;;;;1.13;79.68;93612.34;5011570;28;20009;-50
2023/02/21 04:31:57;;;;;;;;;;;;;;;1.03;79.97;93619.19;5016692;28;20008;-49
2023/02/21 04:34:22;;;;;;;;;;;;;;;0.80;80.57;93612.09;5011341;28;19933;-49
2023/02/21 04:36:47;;;;;;;;;;;;;;;0.83;81.43;93624.72;5011809;28;19921;-50
2023/02/21 04:39:13;;;;;;;;;;;;;;;0.92;80.71;93621.81;5011820;28;19917;-48
2023/02/21 04:41:38;;;;;;;;;;;;;;;0.96;81.01;93616.91;5011590;28;20655;-48
2023/02/21 04:44:05;;;;;;;;;;;;;;;0.71;80.60;93632.75;5011524;28;19972;-49
2023/02/21 04:46:30;;;;;;;;;;;;;;;0.52;80.92;93628.88;5011221;28;20483;-48
2023/02/21 04:48:55;;;;;;;;;;;;;;;0.39;81.59;93631.22;5011249;28;19915;-47
2023/02/21 04:51:21;;;;;;;;;;;;;;;0.21;82.06;93633.50;5011253;28;19913;-51
2023/02/21 04:53:47;;;;;;;;;;;;;;;0.30;81.68;93633.38;5011499;28;19918;-49
2023/02/21 04:56:12;;;;;;;;;;;;;;;0.41;82.26;93617.19;5019573;28;19920;-48
2023/02/21 04:58:37;;;;;;;;;;;;;;;0.21;82.66;93619.94;5023446;28;19940;-48
2023/02/21 05:01:03;;;;;;;;;;;;;;;0.13;83.38;93619.59;5018886;28;19921;-48
2023/02/21 05:03:28;;;;;;;;;;;;;;;0.07;83.25;93618.03;5030926;28;19921;-50
2023/02/21 05:05:54;;;;;;;;;;;;;;;-0.01;83.46;93618.47;5030884;28;19917;-48
2023/02/21 05:08:19;;;;;;;;;;;;;;;0.08;84.17;93628.44;5031136;28;19917;-51
2023/02/21 05:10:45;;;;;;;;;;;;;;;0.30;84.74;93619.78;5030591;28;19963;-48
2023/02/21 05:13:10;;;;;;;;;;;;;;;0.47;84.04;93626.88;5030727;28;19920;-47
2023/02/21 05:15:36;;;;;;;;;;;;;;;0.46;83.79;93627.34;5018342;28;19914;-48
2023/02/21 05:18:01;;;;;;;;;;;;;;;0.31;82.59;93634.84;5010549;28;19956;-49
2023/02/21 05:20:27;;;;;;;;;;;;;;;0.41;82.31;93636.19;5011051;28;19921;-48
2023/02/21 05:22:53;;;;;;;;;;;;;;;0.50;82.45;93630.59;5010997;28;19918;-48
2023/02/21 05:25:19;;;;;;;;;;;;;;;0.63;81.99;93631.72;5010567;28;20407;-50
2023/02/21 05:27:45;;;;;;;;;;;;;;;0.62;82.05;93632.94;5024744;28;19917;-48
2023/02/21 05:30:11;;;;;;;;;;;;;;;0.51;82.50;93635.56;5030643;28;19917;-48
2023/02/21 05:32:36;;;;;;;;;;;;;;;0.69;81.92;93637.94;5023085;28;19929;-49
2023/02/21 05:35:02;;;;;;;;;;;;;;;0.57;82.17;93641.78;5030050;28;20398;-49
2023/02/21 05:37:27;;;;;;;;;;;;;;;0.49;82.86;93651.59;5030358;28;19921;-49
2023/02/21 05:39:52;;;;;;;;;;;;;;;0.54;82.42;93639.28;5030284;28;20599;-48
2023/02/21 05:42:17;;;;;;;;;;;;;;;0.53;83.36;93645.94;5029959;28;20003;-48
2023/02/21 05:44:44;;;;;;;;;;;;;;;0.49;83.20;93646.16;5030291;28;19913;-48
2023/02/21 05:47:10;;;;;;;;;;;;;;;0.57;82.60;93638.31;5018806;28;19917;-49
2023/02/21 05:49:35;;;;;;;;;;;;;;;0.38;82.88;93650.72;5010327;28;20321;-47
2023/02/21 05:52:00;;;;;;;;;;;;;;;0.29;83.07;93651.63;5009855;28;19928;-48
2023/02/21 05:54:25;;;;;;;;;;;;;;;0.20;83.86;93640.91;5010185;28;19944;-50
2023/02/21 05:56:51;;;;;;;;;;;;;;;0.20;82.98;93640.16;5010086;28;19914;-49
2023/02/21 05:59:18;;;;;;;;;;;;;;;0.24;83.38;93646.88;5022929;28;19921;-47
2023/02/21 06:01:43;;;;;;;;;;;;;;;0.37;83.14;93649.25;5026747;28;19969;-48
2023/02/21 06:04:09;;;;;;;;;;;;;;;0.33;82.62;93648.69;5028082;28;19921;-48
2023/02/21 06:06:34;;;;;;;;;;;;;;;0.16;83.44;93650.47;5022657;28;19921;-48
2023/02/21 06:08:59;;;;;;;;;;;;;;;0.10;83.76;93642.28;5009430;28;20475;-48
2023/02/21 06:11:27;;;;;;;;;;;;;;;0.11;83.36;93643.75;5020061;28;19917;-49
2023/02/21 06:13:52;;;;;;;;;;;;;;;0.37;83.51;93644.53;5013681;28;19924;-50
2023/02/21 06:16:17;;;;;;;;;;;;;;;0.31;83.37;93648.41;5022560;28;19917;-48
2023/02/21 06:18:43;;;;;;;;;;;;;;;0.27;83.36;93643.22;5026472;28;19924;-48
2023/02/21 06:21:08;;;;;;;;;;;;;;;0.24;83.45;93627.13;5016530;28;19928;-49
2023/02/21 06:23:33;;;;;;;;;;;;;;;0.31;83.82;93645.69;5013611;28;19968;-48
2023/02/21 06:25:59;;;;;;;;;;;;;;;0.24;84.17;93638.72;5025915;28;20011;-47
2023/02/21 06:28:28;;;;;;;;;;;;;;;0.27;83.90;93656.03;5007428;28;20570;-48
2023/02/21 06:30:53;;;;;;;;;;;;;;;0.24;84.21;93646.88;5009779;28;20301;-50
2023/02/21 06:33:18;;;;;;;;;;;;;;;0.56;83.95;93645.00;5015520;28;19917;-48
2023/02/21 06:35:44;;;;;;;;;;;;;;;0.73;83.32;93648.59;5009967;28;19935;-48
2023/02/21 06:38:09;;;;;;;;;;;;;;;0.87;83.41;93647.72;5020729;28;20008;-48
2023/02/21 06:40:34;;;;;;;;;;;;;;;0.97;83.41;93653.75;5019256;28;19948;-48
2023/02/21 06:42:59;;;;;;;;;;;;;;;1.25;82.66;93641.13;5022293;28;19921;-48
2023/02/21 06:45:25;;;;;;;;;;;;;;;1.19;80.70;93651.22;5007631;28;19940;-49
2023/02/21 06:47:50;;;;;;;;;;;;;;;1.42;80.66;93644.69;5019769;28;19925;-47
2023/02/21 06:50:15;;;;;;;;;;;;;;;1.90;78.73;93650.91;5018561;28;19920;-49
2023/02/21 06:52:41;;;;;;;;;;;;;;;2.19;77.61;93647.06;5019177;28;20656;-49
2023/02/21 06:55:06;;;;;;;;;;;;;;;2.98;75.53;93649.47;5018795;28;19949;-48
2023/02/21 06:57:32;;;;;;;;;;;;;;;4.13;72.52;93656.03;5023078;28;20344;-51
2023/02/21 06:59:57;;;;;;;;;;;;;;;4.64;68.26;93657.28;5018078;28;19987;-49
2023/02/21 07:02:22;;;;;;;;;;;;;;;5.09;66.82;93653.03;5012287;28;20393;-48
2023/02/21 07:04:47;;;;;;;;;;;;;;;5.94;64.36;93654.56;5012524;28;19924;-49
2023/02/21 07:07:13;;;;;;;;;;;;;;;7.72;58.43;93648.19;5011697;28;19917;-49
2023/02/21 07:09:38;;;;;;;;;;;;;;;9.59;54.43;93642.16;5020100;28;19940;-49
2023/02/21 07:12:04;;;;;;;;;;;;;;;10.30;50.88;93641.63;5007353;28;19971;-48
2023/02/21 07:14:29;;;;;;;;;;;;;;;10.02;50.66;93639.56;5008478;28;20622;-49
2023/02/21 07:16:54;;;;;;;;;;;;;;;11.53;48.40;93634.75;5007966;28;19918;-49
2023/02/21 07:19:19;;;;;;;;;;;;;;;13.52;42.37;93633.31;5021173;28;19917;-49
2023/02/21 07:21:45;;;;;;;;;;;;;;;13.19;43.84;93622.78;5021786;28;20365;-49
2023/02/21 07:24:10;;;;;;;;;;;;;;;15.82;39.14;93630.66;5027641;28;19983;-50
2023/02/21 07:26:36;;;;;;;;;;;;;;;17.04;35.51;93626.59;5022587;28;20717;-49
2023/02/21 07:29:02;;;;;;;;;;;;;;;17.51;36.22;93625.84;5008219;28;19920;-49
2023/02/21 07:31:27;;;;;;;;;;;;;;;18.81;32.55;93625.03;5013283;28;19913;-51
2023/02/21 07:33:53;;;;;;;;;;;;;;;20.27;29.75;93619.03;5008164;28;19917;-50
2023/02/21 07:36:18;;;;;;;;;;;;;;;20.08;28.79;93617.13;5006943;28;19969;-49
2023/02/21 07:38:43;;;;;;;;;;;;;;;20.80;28.59;93620.09;5006768;28;19962;-52
2023/02/21 07:41:08;;;;;;;;;;;;;;;20.50;27.72;93616.22;5006974;28;19921;-49
2023/02/21 07:43:34;;;;;;;;;;;;;;;21.58;26.36;93615.47;5006850;28;20378;-48
2023/02/21 07:45:59;;;;;;;;;;;;;;;21.44;25.49;93614.69;5007387;28;19924;-49
2023/02/21 07:48:24;;;;;;;;;;;;;;;21.85;24.77;93612.81;5006961;28;19928;-49
2023/02/21 07:50:50;;;;;;;;;;;;;;;23.01;23.04;93606.28;5006982;28;19929;-50
2023/02/21 07:53:15;;;;;;;;;;;;;;;23.59;23.16;93602.84;5008264;28;20004;-49
2023/02/21 07:55:40;;;;;;;;;;;;;;;23.42;23.76;93611.88;5007778;28;19944;-50
2023/02/21 07:58:06;;;;;;;;;;;;;;;20.55;25.82;93598.28;5009614;28;19971;-49
2023/02/21 08:00:31;;;;;;;;;;;;;;;21.19;26.64;93600.59;5008105;28;19921;-49
2023/02/21 08:02:56;;;;;;;;;;;;;;;21.50;25.09;93601.00;5020578;28;19921;-53
2023/02/21 08:05:22;;;;;;;;;;;;;;;22.93;24.43;93597.44;5027521;28;19917;-52
2023/02/21 08:07:47;;;;;;;;;;;;;;;23.40;23.17;93589.22;5027409;28;19968;-50
2023/02/21 08:10:17;;;;;;;;;;;;;;;23.00;23.63;93591.47;5027293;28;19917;-49
2023/02/21 08:12:42;;;;;;;;;;;;;;;22.95;23.40;93583.47;5026722;28;20403;-50
2023/02/21 08:15:08;;;;;;;;;;;;;;;22.39;24.24;93581.97;5019048;28;19923;-50
2023/02/21 08:17:33;;;;;;;;;;;;;;;22.58;23.97;93590.03;5007505;28;19921;-49
2023/02/21 08:19:58;;;;;;;;;;;;;;;23.51;23.12;93580.66;5007811;28;19917;-49
2023/02/21 08:22:23;;;;;;;;;;;;;;;23.11;22.57;93590.63;5007708;28;19918;-50
2023/02/21 08:24:49;;;;;;;;;;;;;;;22.81;23.60;93591.91;5007512;28;20412;-49
2023/02/21 08:27:14;;;;;;;;;;;;;;;22.63;22.75;93580.44;5007699;28;19917;-49
2023/02/21 08:29:39;;;;;;;;;;;;;;;21.72;24.41;93582.56;5007464;28;19953;-50
2023/02/21 08:32:05;;;;;;;;;;;;;;;20.75;25.31;93582.63;5012661;28;20009;-51
2023/02/21 08:34:30;;;;;;;;;;;;;;;19.97;25.90;93580.69;5007176;28;20679;-52
2023/02/21 08:36:55;;;;;;;;;;;;;;;19.01;27.78;93584.41;5007702;28;19917;-50
2023/02/21 08:39:21;;;;;;;;;;;;;;;19.10;27.84;93583.56;5007821;28;19922;-49
2023/02/21 08:41:47;;;;;;;;;;;;;;;18.87;28.45;93578.63;5007469;28;19925;-52
2023/02/21 08:44:15;;;;;;;;;;;;;;;19.49;27.33;93576.31;5007495;28;20210;-50
2023/02/21 08:46:40;;;;;;;;;;;;;;;20.39;26.12;93575.63;5006658;28;19917;-49
2023/02/21 08:49:06;;;;;;;;;;;;;;;22.10;24.85;93575.47;5006758;28;19917;-50
2023/02/21 08:51:31;;;;;;;;;;;;;;;21.55;25.09;93568.97;5007276;28;19936;-49
2023/02/21 08:53:57;;;;;;;;;;;;;;;21.50;24.29;93550.41;5007888;28;19921;-49
2023/02/21 08:56:23;;;;;;;;;;;;;;;23.23;22.50;93560.25;5025246;28;19921;-49
2023/02/21 08:58:48;;;;;;;;;;;;;;;21.39;23.48;93562.44;5017892;28;19971;-49
2023/02/21 09:01:13;;;;;;;;;;;;;;;21.98;23.21;93547.47;5007777;28;20382;-50
2023/02/21 09:03:39;;;;;;;;;;;;;;;22.78;22.20;93538.97;5008519;28;20023;-50
2023/02/21 09:06:04;;;;;;;;;;;;;;;23.48;21.77;93550.91;5010971;28;20536;-49
2023/02/21 09:08:30;;;;;;;;;;;;;;;22.95;23.00;93558.13;5011377;28;19924;-50
2023/02/21 09:10:59;;;;;;;;;;;;;;;22.25;22.81;93550.31;5010726;28;20032;-51
2023/02/21 09:13:25;;;;;;;;;;;;;;;22.42;22.51;93554.69;5010761;28;19921;-49
2023/02/21 09:15:50;;;;;;;;;;;;;;;21.03;24.56;93555.50;5023970;28;19921;-49
2023/02/21 09:18:16;;;;;;;;;;;;;;;21.91;22.87;93561.81;5030561;28;19990;-50
2023/02/21 09:20:41;;;;;;;;;;;;;;;21.45;23.41;93549.47;5030495;28;19917;-49
2023/02/21 09:23:07;;;;;;;;;;;;;;;21.49;23.47;93563.00;5030772;28;19921;-51
2023/02/21 09:25:32;;;;;;;;;;;;;;;22.85;22.53;93558.34;5030418;28;19948;-52
2023/02/21 09:27:59;;;;;;;;;;;;;;;22.60;22.05;93559.19;5013304;28;19914;-48
2023/02/21 09:30:25;;;;;;;;;;;;;;;21.56;23.29;93557.09;5010791;28;19917;-49
2023/02/21 09:32:50;;;;;;;;;;;;;;;21.16;22.98;93563.25;5015144;28;20420;-50
2023/02/21 09:35:16;;;;;;;;;;;;;;;20.60;24.59;93566.31;5010550;28;19929;-49
2023/02/21 09:37:42;;;;;;;;;;;;;;;20.46;25.05;93568.28;5010406;28;19924;-51
2023/02/21 09:40:12;;;;;;;;;;;;;;;21.06;24.10;93557.06;5010479;28;19921;-50
2023/02/21 09:42:40;;;;;;;;;;;;;;;22.30;22.57;93548.44;5010579;28;19925;-50
2023/02/21 09:45:05;;;;;;;;;;;;;;;22.88;21.47;93545.09;5010263;28;19913;-51
2023/02/21 09:47:32;;;;;;;;;;;;;;;23.48;21.21;93542.44;5010282;28;19913;-49
2023/02/21 09:50:00;;;;;;;;;;;;;;;23.58;21.46;93545.03;5010562;28;20016;-49
2023/02/21 09:52:31;;;;;;;;;;;;;;;23.47;21.17;93551.53;5026640;28;20446;-49
2023/02/21 09:54:57;;;;;;;;;;;;;;;24.28;20.41;93534.19;5030237;28;20527;-49
2023/02/21 09:57:22;;;;;;;;;;;;;;;24.02;20.28;93536.53;5030007;28;19925;-50
2023/02/21 09:59:48;;;;;;;;;;;;;;;23.50;20.79;93531.25;5012912;28;19917;-51
2023/02/21 10:02:29;;;;;;;;;;;;;;;23.34;21.02;93525.59;5010270;28;19979;-54
2023/02/21 10:05:06;;;;;;;;;;;;;;;23.01;21.43;93524.63;5009916;28;19957;-51
2023/02/21 10:07:34;;;;;;;;;;;;;;;23.31;21.28;93526.84;5010061;28;20064;-52
2023/02/21 10:09:59;;;;;;;;;;;;;;;23.43;21.54;93525.97;5009843;28;19918;-50
2023/02/21 10:12:33;;;;;;;;;;;;;;;24.06;21.03;93517.00;5010061;28;19971;-51
2023/02/21 10:14:58;;;;;;;;;;;;;;;25.33;20.01;93510.44;5015521;28;20322;-49
2023/02/21 10:17:40;;;;;;;;;;;;;;;24.78;20.65;93515.94;5029571;28;19992;-52
2023/02/21 10:20:10;;;;;;;;;;;;;;;25.65;19.79;93506.09;5029254;28;19921;-49
2023/02/21 10:22:37;;;;;;;;;;;;;;;25.47;18.88;93496.88;5027994;28;19924;-51
2023/02/21 10:25:21;;;;;;;;;;;;;;;24.80;20.34;93494.16;5028378;28;19917;-51
2023/02/21 10:27:47;;;;;;;;;;;;;;;25.61;19.76;93491.06;5013745;28;19953;-51
2023/02/21 10:30:16;;;;;;;;;;;;;;;24.70;20.12;93492.97;5007934;28;19957;-51
2023/02/21 10:32:42;;;;;;;;;;;;;;;24.44;20.05;93486.19;5016176;28;19917;-49
2023/02/21 10:35:07;;;;;;;;;;;;;;;24.13;20.62;93491.91;5027434;28;19936;-49
2023/02/21 10:37:33;;;;;;;;;;;;;;;24.19;20.27;93481.59;5027799;28;20401;-51
2023/02/21 10:40:00;;;;;;;;;;;;;;;23.63;22.44;93470.56;5029128;28;19913;-50
2023/02/21 10:42:44;;;;;;;;;;;;;;;24.32;20.70;93463.81;5027624;28;20005;-52
2023/02/21 10:45:09;;;;;;;;;;;;;;;23.50;20.83;93460.09;5029033;28;19916;-49
2023/02/21 10:47:44;;;;;;;;;;;;;;;22.20;21.92;93449.47;5021297;28;20012;-49
2023/02/21 10:50:10;;;;;;;;;;;;;;;22.47;22.08;93455.06;5008696;28;19917;-49
2023/02/21 10:52:46;;;;;;;;;;;;;;;21.91;22.48;93443.75;5009181;28;20000;-47
2023/02/21 10:55:11;;;;;;;;;;;;;;;21.64;23.19;93456.38;5008914;28;19918;-49
2023/02/21 10:57:44;;;;;;;;;;;;;;;22.24;22.50;93456.00;5008823;28;20003;-51
2023/02/21 11:00:13;;;;;;;;;;;;;;;22.56;22.00;93446.41;5007757;28;20064;-48
2023/02/21 11:02:39;;;;;;;;;;;;;;;23.01;21.35;93448.59;5006524;28;20575;-50
2023/02/21 11:05:09;;;;;;;;;;;;;;;23.56;21.11;93443.47;5008635;28;19914;-49
2023/02/21 11:07:34;;;;;;;;;;;;;;;23.57;21.21;93445.63;5008894;28;19917;-50
2023/02/21 11:09:59;;;;;;;;;;;;;;;24.68;20.40;93437.16;5008372;28;20662;-49
2023/02/21 11:12:25;;;;;;;;;;;;;;;24.71;19.75;93421.03;5008899;28;19913;-49
2023/02/21 11:14:51;;;;;;;;;;;;;;;24.34;20.11;93426.50;5014764;28;20017;-49
2023/02/21 11:17:16;;;;;;;;;;;;;;;23.37;22.23;93418.63;5028274;28;19976;-48
2023/02/21 11:19:56;;;;;;;;;;;;;;;24.03;21.04;93418.81;5028541;28;20840;-49
2023/02/21 11:22:24;;;;;;;;;;;;;;;23.77;20.93;93418.38;5028013;28;20408;-49
2023/02/21 11:24:51;;;;;;;;;;;;;;;23.71;20.66;93415.28;5027846;28;19963;-49
2023/02/21 11:27:16;;;;;;;;;;;;;;;23.33;21.49;93405.06;5016464;28;20036;-48
2023/02/21 11:29:42;;;;;;;;;;;;;;;23.41;22.34;93408.28;5008113;28;19940;-50
2023/02/21 11:32:11;;;;;;;;;;;;;;;21.51;23.73;93402.97;5012738;28;20107;-49
2023/02/21 11:34:36;;;;;;;;;;;;;;;22.28;23.02;93405.63;5022480;28;19921;-50
2023/02/21 11:37:02;;;;;;;;;;;;;;;22.08;23.15;93393.34;5007825;28;20403;-48
2023/02/21 11:39:31;;;;;;;;;;;;;;;21.49;23.34;93397.97;5008186;28;19933;-50
2023/02/21 11:41:57;;;;;;;;;;;;;;;22.34;22.11;93396.72;5008100;28;20318;-50
2023/02/21 11:44:22;;;;;;;;;;;;;;;22.34;22.63;93379.84;5007701;28;19983;-49
2023/02/21 11:46:49;;;;;;;;;;;;;;;22.11;23.34;93383.63;5007800;28;19917;-52
2023/02/21 11:49:27;;;;;;;;;;;;;;;21.91;23.21;93390.31;5006946;28;20317;-50
2023/02/21 11:51:53;;;;;;;;;;;;;;;22.54;22.57;93380.84;5006852;28;20325;-52
2023/02/21 11:54:19;;;;;;;;;;;;;;;22.61;22.02;93379.81;5007074;28;20016;-51
2023/02/21 11:57:03;;;;;;;;;;;;;;;22.63;23.58;93379.19;5006408;28;20366;-49
2023/02/21 11:59:41;;;;;;;;;;;;;;;22.26;22.45;93371.72;5007766;28;19925;-49
2023/02/21 12:02:25;;;;;;;;;;;;;;;22.45;22.17;93362.13;5009291;28;19918;-51
2023/02/21 12:04:53;;;;;;;;;;;;;;;23.41;22.13;93360.38;5007985;28;19918;-49
2023/02/21 12:07:24;;;;;;;;;;;;;;;22.57;21.93;93357.06;5008168;28;20308;-50
2023/02/21 12:10:05;;;;;;;;;;;;;;;22.71;22.91;93349.34;5007811;28;19917;-49
2023/02/21 12:12:40;;;;;;;;;;;;;;;22.49;20.37;93351.78;5007625;28;19917;-49
2023/02/21 12:15:05;;;;;;;;;;;;;;;22.30;22.19;93345.91;5014615;28;20377;-49
2023/02/21 12:17:50;;;;;;;;;;;;;;;22.86;21.48;93336.66;5027152;28;19913;-48
2023/02/21 12:20:34;;;;;;;;;;;;;;;23.03;20.82;93331.16;5027650;28;19913;-48
2023/02/21 12:22:59;;;;;;;;;;;;;;;21.81;21.89;93323.03;5027296;28;19928;-49
2023/02/21 12:25:40;;;;;;;;;;;;;;;22.15;21.19;93327.63;5027525;28;20562;-47
2023/02/21 12:28:15;;;;;;;;;;;;;;;21.94;21.22;93311.09;5009493;28;20372;-49
2023/02/21 12:30:53;;;;;;;;;;;;;;;21.64;22.21;93321.50;5007583;28;19948;-50
2023/02/21 12:33:33;;;;;;;;;;;;;;;22.20;22.18;93318.00;5015521;28;20441;-51
2023/02/21 12:36:01;;;;;;;;;;;;;;;21.46;22.82;93303.72;5007336;28;19925;-48
2023/02/21 12:38:26;;;;;;;;;;;;;;;21.65;22.40;93300.50;5010325;28;19928;-49
2023/02/21 12:40:51;;;;;;;;;;;;;;;21.39;22.67;93301.22;5025450;28;19917;-49
2023/02/21 12:43:17;;;;;;;;;;;;;;;21.16;23.41;93299.31;5031361;28;20009;-49
2023/02/21 12:45:42;;;;;;;;;;;;;;;21.47;22.17;93299.56;5030962;28;20448;-49
2023/02/21 12:48:33;;;;;;;;;;;;;;;21.30;21.95;93299.34;5031009;28;19921;-49
2023/02/21 12:51:02;;;;;;;;;;;;;;;21.22;22.17;93299.66;5026829;28;19948;-48
2023/02/21 12:53:30;;;;;;;;;;;;;;;21.25;22.40;93294.84;5030075;28;19968;-49
2023/02/21 12:56:03;;;;;;;;;;;;;;;21.15;22.77;93281.03;5029694;28;20008;-50
2023/02/21 12:58:43;;;;;;;;;;;;;;;21.11;23.47;93289.97;5026202;28;19918;-49
2023/02/21 13:01:16;;;;;;;;;;;;;;;20.94;22.63;93284.13;5009769;28;19918;-48
2023/02/21 13:03:54;;;;;;;;;;;;;;;20.70;21.99;93282.81;5025333;28;20368;-49
2023/02/21 13:06:31;;;;;;;;;;;;;;;20.59;23.64;93275.19;5010813;28;19917;-48
2023/02/21 13:09:05;;;;;;;;;;;;;;;20.79;23.02;93287.50;5011186;28;19992;-49
2023/02/21 13:11:32;;;;;;;;;;;;;;;20.39;23.02;93286.78;5010945;28;19913;-48
2023/02/21 13:13:57;;;;;;;;;;;;;;;20.24;24.48;93292.19;5011058;28;19967;-49
2023/02/21 13:16:23;;;;;;;;;;;;;;;20.46;23.96;93284.28;5028612;28;19952;-48
2023/02/21 13:18:50;;;;;;;;;;;;;;;20.66;22.69;93286.09;5028972;28;19917;-50
2023/02/21 13:21:20;;;;;;;;;;;;;;;20.53;24.11;93275.56;5029455;28;20044;-51
2023/02/21 13:26:32;;;;;;;;;;;;;;;20.20;22.99;93266.72;5023827;28;19919;-49
2023/02/21 13:28:57;;;;;;;;;;;;;;;20.09;22.53;93267.50;5010848;28;19917;-47
2023/02/21 13:31:24;;;;;;;;;;;;;;;20.06;22.53;93268.72;5015332;28;19974;-48
2023/02/21 13:33:51;;;;;;;;;;;;;;;19.87;22.67;93269.03;5009961;28;20012;-50
2023/02/21 13:36:19;;;;;;;;;;;;;;;19.75;21.62;93257.88;5010287;28;19926;-49
2023/02/21 13:38:45;;;;;;;;;;;;;;;19.77;22.87;93266.41;5010464;28;20012;-50
2023/02/21 13:41:14;;;;;;;;;;;;;;;19.90;22.67;93259.41;5009079;28;20028;-48
2023/02/21 13:43:44;;;;;;;;;;;;;;;20.02;22.02;93246.09;5010174;28;19928;-48
2023/02/21 13:46:25;;;;;;;;;;;;;;;19.48;23.42;93247.25;5010215;28;20385;-48
2023/02/21 13:49:09;;;;;;;;;;;;;;;19.56;22.20;93250.50;5009204;28;19921;-47
2023/02/21 13:51:51;;;;;;;;;;;;;;;19.62;23.28;93245.25;5010313;28;20079;-51
2023/02/21 13:54:20;;;;;;;;;;;;;;;19.18;22.50;93253.13;5010485;28;19913;-47
2023/02/21 13:56:47;;;;;;;;;;;;;;;19.30;22.02;93242.63;5009982;28;19924;-51
2023/02/21 13:59:21;;;;;;;;;;;;;;;19.01;23.17;93242.31;5022126;28;19917;-48
2023/02/21 14:01:48;;;;;;;;;;;;;;;18.97;23.05;93245.59;5026210;28;20019;-47
2023/02/21 14:04:32;;;;;;;;;;;;;;;18.90;22.75;93236.13;5010151;28;19992;-49
2023/02/21 14:06:57;;;;;;;;;;;;;;;18.87;21.83;93240.13;5010065;28;19924;-48
2023/02/21 14:09:23;;;;;;;;;;;;;;;18.67;22.62;93240.94;5008822;28;19917;-47
2023/02/21 14:11:49;;;;;;;;;;;;;;;18.66;22.86;93237.44;5009747;28;19925;-48
2023/02/21 14:14:25;;;;;;;;;;;;;;;18.74;23.41;93235.13;5010037;28;19921;-48
2023/02/21 14:17:22;;;;;;;;;;;;;;;18.78;22.58;93229.78;5028165;28;20728;-48
2023/02/21 14:19:48;;;;;;;;;;;;;;;18.52;23.03;93230.25;4995754;28;19923;-48
2023/02/21 14:22:23;;;;;;;;;;;;;;;18.40;23.39;93229.47;5028169;28;19917;-48
2023/02/21 14:24:49;;;;;;;;;;;;;;;18.19;23.16;93225.44;5028194;28;19921;-48
2023/02/21 14:27:14;;;;;;;;;;;;;;;18.24;23.28;93234.78;5024705;28;20425;-48
2023/02/21 14:29:59;;;;;;;;;;;;;;;18.21;23.27;93236.03;5009744;28;20593;-48
2023/02/21 14:32:44;;;;;;;;;;;;;;;17.90;24.32;93243.81;5017238;28;19917;-48
2023/02/21 14:35:13;;;;;;;;;;;;;;;17.88;23.56;93238.09;4988137;28;19925;-48
2023/02/21 14:37:42;;;;;;;;;;;;;;;17.72;24.26;93235.00;5027059;28;19924;-48
2023/02/21 14:40:10;;;;;;;;;;;;;;;17.97;23.16;93242.88;5029197;28;19928;-48
2023/02/21 14:42:51;;;;;;;;;;;;;;;18.08;23.01;93240.09;5029093;28;19913;-48
2023/02/21 14:45:22;;;;;;;;;;;;;;;17.76;23.68;93242.91;5028894;28;20011;-47
2023/02/21 14:47:50;;;;;;;;;;;;;;;17.83;22.90;93242.69;5028829;28;19921;-48
2023/02/21 14:50:18;;;;;;;;;;;;;;;17.70;25.04;93242.50;5028768;28;19913;-48
2023/02/21 14:52:47;;;;;;;;;;;;;;;17.42;23.99;93241.38;5028847;28;20448;-48
2023/02/21 14:55:33;;;;;;;;;;;;;;;17.48;24.01;93241.06;5027369;28;19924;-48
2023/02/21 14:58:01;;;;;;;;;;;;;;;17.62;24.52;93247.59;4985418;28;20078;-47
2023/02/21 15:00:38;;;;;;;;;;;;;;;17.35;25.32;93245.84;5007418;28;20043;-48
2023/02/21 15:03:14;;;;;;;;;;;;;;;17.38;25.77;93241.13;5017854;28;20321;-48
2023/02/21 15:05:48;;;;;;;;;;;;;;;17.49;24.01;93246.03;5007450;28;19917;-47
2023/02/21 15:08:22;;;;;;;;;;;;;;;17.25;24.73;93244.44;5008675;28;20447;-47
2023/02/21 15:10:48;;;;;;;;;;;;;;;17.09;25.32;93244.09;5007290;28;19921;-47
2023/02/21 15:13:21;;;;;;;;;;;;;;;17.15;24.78;93249.38;5007720;28;19940;-47